MI30 weather

Air Park North
Alba, Michigan, United States

Public forecast

Using degrees Fahrenheit for public forecast. Weather courtesy of forecast.io.

METAR (pilot weather report)

Closest report is Antrim County Airport, 10.3 nm (19.2 km) W. Retrieved 2019/06/20 23:40 UTC (0 seconds ago):

KACB 202340Z AUTO 33003KT 10SM CLR 21/07 A2980 RMK AO2 T02120066

TAF (pilot weather forecast)

Closest forecast is Cherry Capital Airport, 29.6 nm (54.7 km) WSW. Retrieved 2019/06/20 18:24 UTC (5 hours ago):

TAF KTVC 201723Z 2018/2118 03009KT P6SM SCT040 BKN200 FM202100 01009KT P6SM FEW050 SCT250 FM210200 VRB03KT P6SM SCT250 FM211700 01005KT P6SM FEW070